createdAt,value
2017-09-21T00:01:00.408Z,10.50
2017-09-21T00:03:27.895Z,10.50
2017-09-21T00:05:55.383Z,10.40
2017-09-21T00:08:22.874Z,10.40
2017-09-21T00:10:50.343Z,10.40
2017-09-21T00:13:17.810Z,10.30
2017-09-21T00:15:45.290Z,10.20
2017-09-21T00:18:13.537Z,10.10
2017-09-21T00:20:41.023Z,10.10
2017-09-21T00:23:09.258Z,10.00
2017-09-21T00:25:36.722Z,10.00
2017-09-21T00:28:04.199Z,9.90
2017-09-21T00:30:31.660Z,9.90
2017-09-21T00:32:59.142Z,9.90
2017-09-21T00:35:27.383Z,9.80
2017-09-21T00:37:54.867Z,9.80
2017-09-21T00:40:23.083Z,9.70
2017-09-21T00:42:50.557Z,9.70
2017-09-21T00:45:18.010Z,9.70
2017-09-21T00:47:45.491Z,9.70
2017-09-21T00:50:12.951Z,9.60
2017-09-21T00:52:40.416Z,9.70
2017-09-21T00:55:08.659Z,9.60
2017-09-21T00:57:36.147Z,9.60
2017-09-21T01:00:04.375Z,9.60
2017-09-21T01:02:31.858Z,9.60
2017-09-21T01:04:59.391Z,9.60
2017-09-21T01:07:26.847Z,9.60
2017-09-21T01:09:54.307Z,9.50
2017-09-21T01:12:21.787Z,9.50
2017-09-21T01:14:49.255Z,9.50
2017-09-21T01:17:16.734Z,9.50
2017-09-21T01:19:44.212Z,9.60
2017-09-21T01:22:11.687Z,9.60
2017-09-21T01:27:13.883Z,9.70
2017-09-21T01:29:41.350Z,9.70
2017-09-21T01:32:08.826Z,9.70
2017-09-21T01:34:37.068Z,9.70
2017-09-21T01:37:04.526Z,9.70
2017-09-21T01:39:31.996Z,9.70
2017-09-21T01:41:59.493Z,9.70
2017-09-21T01:44:26.951Z,9.70
2017-09-21T01:46:54.522Z,9.60
2017-09-21T01:49:21.977Z,9.60
2017-09-21T01:51:49.459Z,9.60
2017-09-21T01:54:16.927Z,9.50
2017-09-21T01:56:44.407Z,9.40
2017-09-21T01:59:12.652Z,9.30
2017-09-21T02:01:40.111Z,9.30
2017-09-21T02:04:07.591Z,9.20
2017-09-21T02:06:35.843Z,9.00
2017-09-21T02:09:03.327Z,9.00
2017-09-21T02:11:31.552Z,9.00
2017-09-21T02:13:59.011Z,9.00
2017-09-21T02:16:26.483Z,9.00
2017-09-21T02:18:54.803Z,8.90
2017-09-21T02:21:23.050Z,8.80
2017-09-21T02:23:50.544Z,8.90
2017-09-21T02:26:18.011Z,8.80
2017-09-21T02:28:45.577Z,8.80
2017-09-21T02:31:13.035Z,8.80
2017-09-21T02:33:40.515Z,8.80
2017-09-21T02:36:07.984Z,8.90
2017-09-21T02:38:35.452Z,8.80
2017-09-21T02:41:02.945Z,8.90
2017-09-21T02:43:30.417Z,8.90
2017-09-21T02:45:57.887Z,8.90
2017-09-21T02:48:25.352Z,8.90
2017-09-21T02:50:52.836Z,8.90
2017-09-21T02:53:20.303Z,8.80
2017-09-21T02:55:48.543Z,8.70
2017-09-21T02:58:16.011Z,8.70
2017-09-21T03:00:43.471Z,8.70
2017-09-21T03:03:10.952Z,8.80
2017-09-21T03:05:39.179Z,8.80
2017-09-21T03:08:06.680Z,8.80
2017-09-21T03:10:34.153Z,8.80
2017-09-21T03:13:02.415Z,8.90
2017-09-21T03:15:30.639Z,8.80
2017-09-21T03:17:58.110Z,8.80
2017-09-21T03:20:25.638Z,8.80
2017-09-21T03:22:53.092Z,8.80
2017-09-21T03:25:20.574Z,8.70
2017-09-21T03:27:48.040Z,8.70
2017-09-21T03:30:15.519Z,8.60
2017-09-21T03:32:43.747Z,8.60
2017-09-21T03:35:11.211Z,8.60
2017-09-21T03:37:38.699Z,8.60
2017-09-21T03:40:06.216Z,8.60
2017-09-21T03:42:33.721Z,8.60
2017-09-21T03:45:01.184Z,8.60
2017-09-21T03:47:29.421Z,8.60
2017-09-21T03:49:56.904Z,8.60
2017-09-21T03:52:24.366Z,8.60
2017-09-21T03:54:51.846Z,8.70
2017-09-21T03:57:20.084Z,8.80
2017-09-21T03:59:47.566Z,8.80
2017-09-21T04:02:15.795Z,8.80
2017-09-21T04:04:43.264Z,8.80
2017-09-21T04:07:10.750Z,8.80
2017-09-21T04:09:38.984Z,8.70
2017-09-21T04:12:06.464Z,8.70
2017-09-21T04:14:33.948Z,8.70
2017-09-21T04:17:01.434Z,8.80
2017-09-21T04:19:28.919Z,8.80
2017-09-21T04:21:56.605Z,8.80
2017-09-21T04:24:24.867Z,8.80
2017-09-21T04:26:52.334Z,8.80
2017-09-21T04:29:20.566Z,8.80
2017-09-21T04:31:48.047Z,8.80
2017-09-21T04:34:15.527Z,8.80
2017-09-21T04:36:43.774Z,8.80
2017-09-21T04:39:11.239Z,8.80
2017-09-21T04:41:38.728Z,8.70
2017-09-21T04:44:06.960Z,8.70
2017-09-21T04:46:34.446Z,8.70
2017-09-21T04:49:02.711Z,8.70
2017-09-21T04:51:30.188Z,8.60
2017-09-21T04:53:58.427Z,8.60
2017-09-21T04:56:26.000Z,8.60
2017-09-21T04:58:54.081Z,8.70
2017-09-21T05:01:21.679Z,8.60
2017-09-21T05:03:49.328Z,8.60
2017-09-21T05:06:16.983Z,8.50
2017-09-21T05:08:45.262Z,8.50
2017-09-21T05:11:12.728Z,8.50
2017-09-21T05:13:40.213Z,8.50
2017-09-21T05:16:07.681Z,8.50
2017-09-21T05:18:35.151Z,8.50
2017-09-21T05:21:02.643Z,8.50
2017-09-21T05:23:30.111Z,8.50
2017-09-21T05:25:57.571Z,8.50
2017-09-21T05:28:25.055Z,8.50
2017-09-21T05:30:52.528Z,8.50
2017-09-21T05:33:20.020Z,8.50
2017-09-21T05:35:48.253Z,8.60
2017-09-21T05:38:15.711Z,8.60
2017-09-21T05:40:43.199Z,8.60
2017-09-21T05:43:11.442Z,8.70
2017-09-21T05:45:38.910Z,8.60
2017-09-21T05:48:06.399Z,8.70
2017-09-21T05:50:34.646Z,8.80
2017-09-21T05:53:02.107Z,8.80
2017-09-21T05:55:29.589Z,8.90
2017-09-21T05:57:57.815Z,9.20
2017-09-21T06:00:25.299Z,9.20
2017-09-21T06:02:53.560Z,9.70
2017-09-21T06:05:21.068Z,9.70
2017-09-21T06:07:48.542Z,10.20
2017-09-21T06:10:16.036Z,10.50
2017-09-21T06:12:43.507Z,10.30
2017-09-21T06:15:11.736Z,10.50
2017-09-21T06:17:39.228Z,10.50
2017-09-21T06:20:07.455Z,11.00
2017-09-21T06:22:34.951Z,11.00
2017-09-21T06:25:02.424Z,10.70
2017-09-21T06:27:30.664Z,9.90
2017-09-21T06:29:58.158Z,9.90
2017-09-21T06:32:25.640Z,9.80
2017-09-21T06:34:53.132Z,9.80
2017-09-21T06:37:20.611Z,9.80
2017-09-21T06:39:48.075Z,9.80
2017-09-21T06:42:15.559Z,9.90
2017-09-21T06:44:43.791Z,9.90
2017-09-21T06:47:11.252Z,9.90
2017-09-21T06:49:38.724Z,9.90
2017-09-21T06:52:06.208Z,10.00
2017-09-21T06:54:33.699Z,10.00
2017-09-21T06:57:01.188Z,10.10
2017-09-21T06:59:28.656Z,10.30
2017-09-21T07:01:56.904Z,10.40
2017-09-21T07:04:24.379Z,10.40
2017-09-21T07:06:51.840Z,10.50
2017-09-21T07:09:19.332Z,10.60
2017-09-21T07:11:46.810Z,10.70
2017-09-21T07:14:14.295Z,10.80
2017-09-21T07:16:41.775Z,10.80
2017-09-21T07:19:10.008Z,10.90
2017-09-21T07:21:37.499Z,10.90
2017-09-21T07:24:05.101Z,11.00
2017-09-21T07:26:32.557Z,11.10
2017-09-21T07:29:00.031Z,11.00
2017-09-21T07:31:27.511Z,11.10
2017-09-21T07:33:55.004Z,11.20
2017-09-21T07:36:23.235Z,11.30
2017-09-21T07:38:50.714Z,11.30
2017-09-21T07:41:18.175Z,11.40
2017-09-21T07:43:46.411Z,11.70
2017-09-21T07:46:13.890Z,11.70
2017-09-21T07:48:42.123Z,12.00
2017-09-21T07:51:09.604Z,12.00
2017-09-21T07:53:37.079Z,12.10
2017-09-21T07:56:04.543Z,12.20
2017-09-21T07:58:32.026Z,12.20
2017-09-21T08:01:00.256Z,12.30
2017-09-21T08:03:27.734Z,12.30
2017-09-21T08:05:55.195Z,12.50
2017-09-21T08:08:22.679Z,12.60
2017-09-21T08:10:50.159Z,12.60
2017-09-21T08:13:17.635Z,12.80
2017-09-21T08:15:45.107Z,13.00
2017-09-21T08:18:12.619Z,13.10
2017-09-21T08:20:40.099Z,13.20
2017-09-21T08:23:07.560Z,13.30
2017-09-21T08:25:35.036Z,13.40
2017-09-21T08:28:02.524Z,13.40
2017-09-21T08:30:29.991Z,13.50
2017-09-21T08:32:57.483Z,13.60
2017-09-21T08:35:24.943Z,13.70
2017-09-21T08:37:52.421Z,13.80
2017-09-21T08:40:19.888Z,13.90
2017-09-21T08:42:48.136Z,14.00
2017-09-21T08:45:15.627Z,14.10
2017-09-21T08:47:43.867Z,14.40
2017-09-21T08:50:11.344Z,14.40
2017-09-21T08:52:38.809Z,14.60
2017-09-21T08:55:07.050Z,14.60
2017-09-21T08:57:34.525Z,14.60
2017-09-21T09:00:02.057Z,14.70
2017-09-21T09:02:29.528Z,14.80
2017-09-21T09:04:56.982Z,15.00
2017-09-21T09:07:24.456Z,15.00
2017-09-21T09:09:51.916Z,15.10
2017-09-21T09:12:19.396Z,15.10
2017-09-21T09:14:47.626Z,15.20
2017-09-21T09:17:15.098Z,15.20
2017-09-21T09:19:42.575Z,15.40
2017-09-21T09:22:10.819Z,15.50
2017-09-21T09:24:38.294Z,15.50
2017-09-21T09:27:06.522Z,16.00
2017-09-21T09:29:33.999Z,15.90
2017-09-21T09:32:01.483Z,16.00
2017-09-21T09:34:28.963Z,16.20
2017-09-21T09:36:56.455Z,16.30
2017-09-21T09:39:23.911Z,16.30
2017-09-21T09:41:51.403Z,16.40
2017-09-21T09:44:18.875Z,16.50
2017-09-21T09:46:47.119Z,17.20
2017-09-21T09:49:14.586Z,17.10
2017-09-21T09:51:42.068Z,17.30
2017-09-21T09:54:10.295Z,17.50
2017-09-21T09:56:37.760Z,17.60
2017-09-21T09:59:05.286Z,18.00
2017-09-21T10:01:32.751Z,18.50
2017-09-21T10:04:00.241Z,19.40
2017-09-21T10:06:28.473Z,21.60
2017-09-21T10:08:55.951Z,21.50
2017-09-21T10:11:23.418Z,22.30
2017-09-21T10:13:50.880Z,23.00
2017-09-21T10:16:18.350Z,23.50
2017-09-21T10:18:45.814Z,23.10
2017-09-21T10:21:14.057Z,23.50
2017-09-21T10:23:41.525Z,23.50
2017-09-21T10:26:09.775Z,23.70
2017-09-21T10:28:37.847Z,23.70
2017-09-21T10:31:05.306Z,24.00
2017-09-21T10:33:32.786Z,23.30
2017-09-21T10:36:00.243Z,23.50
2017-09-21T10:38:29.233Z,24.10
2017-09-21T10:40:56.683Z,24.10
2017-09-21T10:43:24.144Z,23.40
2017-09-21T10:45:51.629Z,23.90
2017-09-21T10:48:19.857Z,24.40
2017-09-21T10:50:47.319Z,24.30
2017-09-21T10:53:14.785Z,25.00
2017-09-21T10:55:42.276Z,25.00
2017-09-21T10:58:10.515Z,24.20
2017-09-21T11:00:37.967Z,24.20
2017-09-21T11:03:05.445Z,24.00
2017-09-21T11:05:33.683Z,24.50
2017-09-21T11:08:01.150Z,24.40
2017-09-21T11:10:28.634Z,24.80
2017-09-21T11:12:56.103Z,24.60
2017-09-21T11:15:24.344Z,23.60
2017-09-21T11:17:51.810Z,23.60
2017-09-21T11:20:19.272Z,23.70
2017-09-21T11:22:46.751Z,23.50
2017-09-21T11:25:15.026Z,23.90
2017-09-21T11:27:43.252Z,24.60
2017-09-21T11:30:10.727Z,24.60
2017-09-21T11:32:38.191Z,25.20
2017-09-21T11:35:05.647Z,24.80
2017-09-21T11:37:33.119Z,24.20
2017-09-21T11:40:01.340Z,24.00
2017-09-21T11:42:28.814Z,24.00
2017-09-21T11:44:56.279Z,23.80
2017-09-21T11:47:23.750Z,23.80
2017-09-21T11:49:52.735Z,23.80
2017-09-21T11:52:20.964Z,23.40
2017-09-21T11:54:48.449Z,23.40
2017-09-21T11:57:15.903Z,23.20
2017-09-21T11:59:43.383Z,23.20
2017-09-21T12:02:10.867Z,23.30
2017-09-21T12:04:39.097Z,23.50
2017-09-21T12:07:06.550Z,23.50
2017-09-21T12:09:34.035Z,22.90
2017-09-21T12:12:01.499Z,22.10
2017-09-21T12:14:29.744Z,22.30
2017-09-21T12:16:57.222Z,22.30
2017-09-21T12:19:24.700Z,22.80
2017-09-21T12:21:52.931Z,22.10
2017-09-21T12:24:20.403Z,22.10
2017-09-21T12:26:47.871Z,22.40
2017-09-21T12:29:16.116Z,22.30
2017-09-21T12:31:43.594Z,22.20
2017-09-21T12:34:11.056Z,22.40
2017-09-21T12:36:38.532Z,22.60
2017-09-21T12:39:07.076Z,21.80
2017-09-21T12:41:34.555Z,21.80
2017-09-21T12:44:02.780Z,21.90
2017-09-21T12:46:30.267Z,21.90
2017-09-21T12:48:57.758Z,21.60
2017-09-21T12:51:25.988Z,21.40
2017-09-21T12:53:53.460Z,21.40
2017-09-21T12:56:20.936Z,21.40
2017-09-21T12:58:49.192Z,21.70
2017-09-21T13:01:16.654Z,21.60
2017-09-21T13:03:44.141Z,21.90
2017-09-21T13:06:11.616Z,21.90
2017-09-21T13:08:39.080Z,21.60
2017-09-21T13:11:06.560Z,21.90
2017-09-21T13:13:34.040Z,21.90
2017-09-21T13:16:01.518Z,22.20
2017-09-21T13:18:29.747Z,21.90
2017-09-21T13:20:57.212Z,21.90
2017-09-21T13:23:24.720Z,21.30
2017-09-21T13:25:52.175Z,21.30
2017-09-21T13:28:19.697Z,21.20
2017-09-21T13:30:47.171Z,21.10
2017-09-21T13:33:15.416Z,20.70
2017-09-21T13:35:42.876Z,20.70
2017-09-21T13:38:10.343Z,20.40
2017-09-21T13:40:37.823Z,20.60
2017-09-21T13:43:06.067Z,20.70
2017-09-21T13:45:33.538Z,20.70
2017-09-21T13:48:01.779Z,20.40
2017-09-21T13:50:29.255Z,20.40
2017-09-21T13:52:56.739Z,20.20
2017-09-21T13:55:24.989Z,19.80
2017-09-21T13:57:52.459Z,19.80
2017-09-21T14:00:20.687Z,19.80
2017-09-21T14:02:48.170Z,19.80
2017-09-21T14:05:15.626Z,19.80
2017-09-21T14:07:43.955Z,19.80
2017-09-21T14:10:11.451Z,20.00
2017-09-21T14:12:38.924Z,20.10
2017-09-21T14:15:06.396Z,20.30
2017-09-21T14:17:34.623Z,20.20
2017-09-21T14:20:02.100Z,20.20
2017-09-21T14:22:29.560Z,19.90
2017-09-21T14:24:57.023Z,19.60
2017-09-21T14:27:24.499Z,19.60
2017-09-21T14:29:53.191Z,19.70
2017-09-21T14:32:21.424Z,20.00
2017-09-21T14:34:48.960Z,20.00
2017-09-21T14:37:16.676Z,20.20
2017-09-21T14:39:44.259Z,20.30
2017-09-21T14:42:11.735Z,20.10
2017-09-21T14:44:39.236Z,19.80
2017-09-21T14:47:06.763Z,19.80
2017-09-21T14:49:34.303Z,19.80
2017-09-21T14:52:01.801Z,19.50
2017-09-21T14:54:29.283Z,19.50
2017-09-21T14:56:57.541Z,19.40
2017-09-21T14:59:25.024Z,19.40
2017-09-21T15:01:53.408Z,19.40
2017-09-21T15:04:21.074Z,19.30
2017-09-21T15:06:48.552Z,19.20
2017-09-21T15:09:16.066Z,19.20
2017-09-21T15:11:43.523Z,19.20
2017-09-21T15:14:11.811Z,19.20
2017-09-21T15:16:40.068Z,19.10
2017-09-21T15:19:08.293Z,19.10
2017-09-21T15:21:35.802Z,19.10
2017-09-21T15:24:04.114Z,19.00
2017-09-21T15:26:31.609Z,19.00
2017-09-21T15:28:59.134Z,19.10
2017-09-21T15:31:26.775Z,19.20
2017-09-21T15:33:55.759Z,19.10
2017-09-21T15:36:23.396Z,19.10
2017-09-21T15:38:51.155Z,19.00
2017-09-21T15:41:19.484Z,19.00
2017-09-21T15:43:47.079Z,19.00
2017-09-21T15:46:15.371Z,19.00
2017-09-21T15:48:42.815Z,19.00
2017-09-21T15:51:10.324Z,19.00
2017-09-21T15:53:37.787Z,19.00
2017-09-21T15:56:05.270Z,19.10
2017-09-21T15:58:32.730Z,19.10
2017-09-21T16:01:00.188Z,19.10
2017-09-21T16:03:27.684Z,19.00
2017-09-21T16:05:55.974Z,19.10
2017-09-21T16:08:23.447Z,19.00
2017-09-21T16:10:50.919Z,19.00
2017-09-21T16:13:18.397Z,18.90
2017-09-21T16:15:46.133Z,18.90
2017-09-21T16:18:13.729Z,18.90
2017-09-21T16:20:41.287Z,18.80
2017-09-21T16:23:08.981Z,18.80
2017-09-21T16:25:37.480Z,18.80
2017-09-21T16:28:04.967Z,18.80
2017-09-21T16:30:32.544Z,18.80
2017-09-21T16:33:00.033Z,18.80
2017-09-21T16:35:28.283Z,18.70
2017-09-21T16:37:56.595Z,18.60
2017-09-21T16:40:24.077Z,18.60
2017-09-21T16:42:51.694Z,18.60
2017-09-21T16:45:20.005Z,18.40
2017-09-21T16:47:47.558Z,18.40
2017-09-21T16:50:15.029Z,18.40
2017-09-21T16:52:42.507Z,18.30
2017-09-21T16:55:09.988Z,18.20
2017-09-21T16:57:38.264Z,18.10
2017-09-21T17:00:06.618Z,18.00
2017-09-21T17:02:34.103Z,18.00
2017-09-21T17:05:02.350Z,17.80
2017-09-21T17:07:29.824Z,17.80
2017-09-21T17:09:57.335Z,17.70
2017-09-21T17:12:24.796Z,17.60
2017-09-21T17:14:52.296Z,17.60
2017-09-21T17:17:19.784Z,17.40
2017-09-21T17:19:47.314Z,17.30
2017-09-21T17:22:14.840Z,17.10
2017-09-21T17:24:42.378Z,17.10
2017-09-21T17:27:10.000Z,16.90
2017-09-21T17:29:38.259Z,16.70
2017-09-21T17:32:05.731Z,16.70
2017-09-21T17:34:34.254Z,16.50
2017-09-21T17:37:02.488Z,16.40
2017-09-21T17:39:30.721Z,16.30
2017-09-21T17:41:58.222Z,16.30
2017-09-21T17:44:26.436Z,16.10
2017-09-21T17:46:53.923Z,16.10
2017-09-21T17:49:21.393Z,16.00
2017-09-21T17:51:48.985Z,16.00
2017-09-21T17:54:16.516Z,15.90
2017-09-21T17:56:44.791Z,15.80
2017-09-21T17:59:13.116Z,15.70
2017-09-21T18:01:40.571Z,15.60
2017-09-21T18:04:08.193Z,15.60
2017-09-21T18:06:35.668Z,15.50
2017-09-21T18:09:03.233Z,15.40
2017-09-21T18:11:30.721Z,15.40
2017-09-21T18:13:58.211Z,15.40
2017-09-21T18:16:25.798Z,15.30
2017-09-21T18:18:53.264Z,15.20
2017-09-21T18:21:20.790Z,15.20
2017-09-21T18:23:51.235Z,15.10
2017-09-21T18:26:18.968Z,15.00
2017-09-21T18:28:47.219Z,14.70
2017-09-21T18:31:14.755Z,14.70
2017-09-21T18:33:42.275Z,14.70
2017-09-21T18:36:11.050Z,14.50
2017-09-21T18:38:39.372Z,14.50
2017-09-21T18:41:06.856Z,14.50
2017-09-21T18:43:34.547Z,14.40
2017-09-21T18:46:02.899Z,14.40
2017-09-21T18:48:30.362Z,14.30
2017-09-21T18:50:57.851Z,14.30
2017-09-21T18:53:26.151Z,14.30
2017-09-21T18:55:53.783Z,14.20
2017-09-21T18:58:21.255Z,14.20
2017-09-21T19:00:48.784Z,14.20
2017-09-21T19:03:16.345Z,14.10
2017-09-21T19:05:44.604Z,14.10
2017-09-21T19:08:12.068Z,14.00
2017-09-21T19:10:40.380Z,13.90
2017-09-21T19:13:07.925Z,13.90
2017-09-21T19:15:36.233Z,13.80
2017-09-21T19:18:04.006Z,13.80
2017-09-21T19:20:31.851Z,13.80
2017-09-21T19:22:59.448Z,13.80
2017-09-21T19:25:27.758Z,13.50
2017-09-21T19:27:56.064Z,13.40
2017-09-21T19:30:23.811Z,13.40
2017-09-21T19:32:51.437Z,13.40
2017-09-21T19:35:20.553Z,13.20
2017-09-21T19:37:48.886Z,13.20
2017-09-21T19:40:16.496Z,13.20
2017-09-21T19:42:44.765Z,13.10
2017-09-21T19:45:12.546Z,13.10
2017-09-21T19:47:40.181Z,13.00
2017-09-21T19:50:07.808Z,12.90
2017-09-21T19:52:35.395Z,12.90
2017-09-21T19:55:03.708Z,12.90
2017-09-21T19:57:31.236Z,12.90
2017-09-21T19:59:59.556Z,12.80
2017-09-21T20:02:27.024Z,12.80
2017-09-21T20:04:54.559Z,12.70
2017-09-21T20:07:22.049Z,12.70
2017-09-21T20:09:50.392Z,12.70
2017-09-21T20:12:17.891Z,12.70
2017-09-21T20:14:45.363Z,12.80
2017-09-21T20:17:12.831Z,13.00
2017-09-21T20:19:40.385Z,13.10
2017-09-21T20:22:08.636Z,13.30
2017-09-21T20:24:36.173Z,13.30
2017-09-21T20:27:03.754Z,13.30
2017-09-21T20:29:31.243Z,13.30
2017-09-21T20:31:59.494Z,13.30
2017-09-21T20:34:26.953Z,13.30
2017-09-21T20:36:54.422Z,13.40
2017-09-21T20:39:21.916Z,13.30
2017-09-21T20:41:49.415Z,13.30
2017-09-21T20:44:16.890Z,13.30
2017-09-21T20:46:44.362Z,13.30
2017-09-21T20:49:12.589Z,13.30
2017-09-21T20:51:40.058Z,13.30
2017-09-21T20:54:07.520Z,13.20
2017-09-21T20:56:34.991Z,13.20
2017-09-21T20:59:02.495Z,13.10
2017-09-21T21:01:29.955Z,13.00
2017-09-21T21:03:57.415Z,13.00
2017-09-21T21:06:24.892Z,12.90
2017-09-21T21:08:52.383Z,12.90
2017-09-21T21:11:20.631Z,12.90
2017-09-21T21:13:48.105Z,12.90
2017-09-21T21:16:15.575Z,12.90
2017-09-21T21:18:43.832Z,12.80
2017-09-21T21:21:11.290Z,12.80
2017-09-21T21:23:38.775Z,12.80
2017-09-21T21:26:07.015Z,12.80
2017-09-21T21:28:34.495Z,12.80
2017-09-21T21:31:02.736Z,12.80
2017-09-21T21:33:30.219Z,12.70
2017-09-21T21:35:58.479Z,12.70
2017-09-21T21:38:27.479Z,12.70
2017-09-21T21:40:54.952Z,12.70
2017-09-21T21:43:23.194Z,12.70
2017-09-21T21:45:50.676Z,12.60
2017-09-21T21:48:18.907Z,12.70
2017-09-21T21:50:46.382Z,12.60
2017-09-21T21:53:13.844Z,12.70
2017-09-21T21:55:42.088Z,12.60
2017-09-21T21:58:09.584Z,12.60
2017-09-21T22:00:37.044Z,12.60
2017-09-21T22:03:04.529Z,12.50
2017-09-21T22:05:31.994Z,12.50
2017-09-21T22:07:59.471Z,12.50
2017-09-21T22:10:26.946Z,12.50
2017-09-21T22:12:54.424Z,12.50
2017-09-21T22:15:22.674Z,12.50
2017-09-21T22:17:50.147Z,12.50
2017-09-21T22:20:17.620Z,12.50
2017-09-21T22:22:45.855Z,12.50
2017-09-21T22:25:13.339Z,12.50
2017-09-21T22:27:40.800Z,12.50
2017-09-21T22:30:08.267Z,12.50
2017-09-21T22:32:36.516Z,12.40
2017-09-21T22:35:03.968Z,12.40
2017-09-21T22:37:31.478Z,12.40
2017-09-21T22:39:59.751Z,12.30
2017-09-21T22:42:27.267Z,12.30
2017-09-21T22:44:54.739Z,12.30
2017-09-21T22:47:22.987Z,12.20
2017-09-21T22:49:50.467Z,12.20
2017-09-21T22:52:17.930Z,12.20
2017-09-21T22:54:46.191Z,12.10
2017-09-21T22:57:13.679Z,12.10
2017-09-21T22:59:41.147Z,12.10
2017-09-21T23:02:08.626Z,12.10
2017-09-21T23:04:36.116Z,12.10
2017-09-21T23:07:03.595Z,12.00
2017-09-21T23:09:31.822Z,12.00
2017-09-21T23:11:59.285Z,11.90
2017-09-21T23:14:26.770Z,11.90
2017-09-21T23:16:54.239Z,11.90
2017-09-21T23:19:22.495Z,11.90
2017-09-21T23:21:50.726Z,11.80
2017-09-21T23:24:18.207Z,11.80
2017-09-21T23:26:45.690Z,11.80
2017-09-21T23:29:13.163Z,11.80
2017-09-21T23:31:41.403Z,11.80
2017-09-21T23:34:08.867Z,11.80
2017-09-21T23:36:37.839Z,11.70
2017-09-21T23:39:05.321Z,11.70
2017-09-21T23:41:32.788Z,11.70
2017-09-21T23:44:01.036Z,11.60
2017-09-21T23:46:28.510Z,11.60
2017-09-21T23:48:56.735Z,11.60
2017-09-21T23:51:24.219Z,11.50
2017-09-21T23:53:51.695Z,11.50
2017-09-21T23:56:19.928Z,11.50
2017-09-21T23:58:47.411Z,11.50
